Rheinfels — V2AI4 — position and weather

sailwx.info

Track history (hours):
 
Tides and Currents Weather Stations Pressure Air Temp Water Temp Dewpoint Dewpoint Depression Visibility Wind Speed Wind Dir Waves Ship Positions

Rheinfels

Last reported at 2014-Sep-12 15:10 UTC. Time now 2014-Sep-21 14:05 UTC.
Position N 37°52' E 023°14'.
Warning: this ship's position is 8 days out of date.

Length 89 m; draft 3.3 m.

Type: Cargo ship. MMSI: 304010767.

Date/timePositionNaut miles runAvg speedWind from/ knotsBaromVisibWave heightAir tempDewpointWater temp
2014-Sep-12 15:10N 37°52' E 023°14'610.5
2014-Sep-12 14:34N 37°51' E 023°22'9 9.1
2014-Sep-12 13:33N 37°52' E 023°33'7 6.9
2014-Sep-12 12:33N 37°59' E 023°33'2 0.4
2014-Sep-12 07:16N 38°01' E 023°32'2 0.9
2014-Sep-12 05:27N 38°02' E 023°30'0 0.0
2014-Sep-11 19:33N 38°02' E 023°30'  
2014-Sep-04 05:33N 38°02' E 023°30'1 0.4
2014-Sep-04 03:28N 38°02' E 023°32'0 0.0
2014-Sep-04 02:31N 38°02' E 023°32'0 0.0
2014-Sep-04 01:10N 38°02' E 023°32'0 0.1
2014-Sep-04 00:31N 38°02' E 023°32'0 0.0
2014-Sep-03 23:25N 38°02' E 023°32'0 0.0
2014-Sep-03 22:31N 38°02' E 023°32'0 0.0
2014-Sep-03 21:25N 38°02' E 023°32'0 0.0
2014-Sep-03 20:31N 38°02' E 023°32'0 0.0
2014-Sep-03 19:31N 38°02' E 023°32'0 0.0
2014-Sep-03 17:33N 38°02' E 023°32'3 0.7
2014-Sep-03 13:23N 38°02' E 023°35'0 0.0
2014-Sep-03 12:29N 38°02' E 023°35'0 0.0
2014-Sep-03 08:05N 38°02' E 023°35'  
Track history (hours):
 
Tides and Currents Weather Stations Pressure Air Temp Water Temp Dewpoint Dewpoint Depression Visibility Wind Speed Wind Dir Waves Ship Positions

Rheinfels

Last reported at 2014-Sep-12 15:10 UTC. Time now 2014-Sep-21 14:05 UTC.
Position N 37°52' E 023°14'.
Warning: this ship's position is 8 days out of date.

Length 89 m; draft 3.3 m.

Type: Cargo ship. MMSI: 304010767.

Date/timePositionNaut miles runAvg speedWind from/ knotsBaromVisibWave heightAir tempDewpointWater temp
2014-Sep-12 15:10N 37°52' E 023°14'610.5
2014-Sep-12 14:34N 37°51' E 023°22'9 9.1
2014-Sep-12 13:33N 37°52' E 023°33'7 6.9
2014-Sep-12 12:33N 37°59' E 023°33'2 0.4
2014-Sep-12 07:16N 38°01' E 023°32'2 0.9
2014-Sep-12 05:27N 38°02' E 023°30'0 0.0
2014-Sep-11 19:33N 38°02' E 023°30'  
2014-Sep-04 05:33N 38°02' E 023°30'1 0.4
2014-Sep-04 03:28N 38°02' E 023°32'0 0.0
2014-Sep-04 02:31N 38°02' E 023°32'0 0.0
2014-Sep-04 01:10N 38°02' E 023°32'0 0.1
2014-Sep-04 00:31N 38°02' E 023°32'0 0.0
2014-Sep-03 23:25N 38°02' E 023°32'0 0.0
2014-Sep-03 22:31N 38°02' E 023°32'0 0.0
2014-Sep-03 21:25N 38°02' E 023°32'0 0.0
2014-Sep-03 20:31N 38°02' E 023°32'0 0.0
2014-Sep-03 19:31N 38°02' E 023°32'0 0.0
2014-Sep-03 17:33N 38°02' E 023°32'3 0.7
2014-Sep-03 13:23N 38°02' E 023°35'0 0.0
2014-Sep-03 12:29N 38°02' E 023°35'0 0.0
2014-Sep-03 08:05N 38°02' E 023°35'  

Dump ship's entire track history